Time;durP1;ratioP1;P1;durP2;ratioP2;P2;SDS_P1;SDS_P2;PMS_P1;PMS_P2;Temp;Humidity;BMP_temperature;BMP_pressure;BME280_temperature;BME280_humidity;BME280_pressure;Samples;Min_cycle;Max_cycle;Signal;HPM_P1;HPM_P2
2021/03/05 00:02:03;;;;;;;23.67;6.50;;;14.70;48.90;;;;;;6135037;28;20047;-78
2021/03/05 00:05:05;;;;;;;20.83;7.40;;;14.70;48.80;;;;;;6124029;29;20038;-78
2021/03/05 00:08:07;;;;;;;16.55;6.22;;;14.70;48.80;;;;;;6131823;29;20071;-78
2021/03/05 00:11:08;;;;;;;27.15;7.85;;;14.70;48.70;;;;;;6125553;29;20042;-78
2021/03/05 00:14:09;;;;;;;25.13;6.40;;;14.70;48.70;;;;;;6153037;29;20039;-78
2021/03/05 00:17:11;;;;;;;23.98;7.72;;;14.60;49.30;;;;;;6172391;29;20039;-77
2021/03/05 00:20:14;;;;;;;25.77;7.72;;;14.60;48.60;;;;;;6108945;29;20040;-79
2021/03/05 00:23:15;;;;;;;24.75;7.75;;;14.60;48.70;;;;;;6136871;29;20106;-79
2021/03/05 00:26:16;;;;;;;15.38;6.68;;;14.60;48.70;;;;;;6118908;29;20144;-79
2021/03/05 00:29:17;;;;;;;29.95;6.53;;;14.60;48.70;;;;;;6133601;28;20394;-79
2021/03/05 00:32:18;;;;;;;24.00;7.90;;;14.60;48.70;;;;;;6131801;29;20047;-79
2021/03/05 00:35:20;;;;;;;23.20;7.00;;;14.60;48.70;;;;;;6133753;29;20036;-78
2021/03/05 00:38:23;;;;;;;11.13;5.63;;;14.60;48.60;;;;;;6137093;29;20036;-79
2021/03/05 00:41:23;;;;;;;18.73;6.57;;;14.70;48.70;;;;;;6143649;29;20046;-79
2021/03/05 00:44:25;;;;;;;23.80;6.15;;;14.60;48.60;;;;;;6127007;29;20031;-79
2021/03/05 00:47:26;;;;;;;23.55;6.50;;;14.70;48.50;;;;;;6135759;29;20035;-79
2021/03/05 00:50:27;;;;;;;21.17;6.13;;;14.80;48.50;;;;;;6118161;29;20376;-79
2021/03/05 00:53:28;;;;;;;20.90;6.97;;;14.70;48.60;;;;;;6132979;29;20070;-79
2021/03/05 00:56:29;;;;;;;25.90;6.90;;;14.60;48.90;;;;;;6117031;29;20395;-79
2021/03/05 00:59:30;;;;;;;23.05;6.85;;;14.60;48.40;;;;;;6148914;29;20031;-80
2021/03/05 01:02:31;;;;;;;31.10;7.20;;;14.50;48.40;;;;;;6132093;29;20039;-79
2021/03/05 01:05:32;;;;;;;20.02;5.35;;;14.50;48.40;;;;;;6116316;29;20324;-79
2021/03/05 01:08:39;;;;;;;27.90;7.05;;;14.40;49.00;;;;;;6124552;29;20067;-78
2021/03/05 01:11:40;;;;;;;26.90;6.35;;;14.40;48.40;;;;;;6113529;29;20381;-79
2021/03/05 01:14:41;;;;;;;17.85;6.22;;;14.40;48.40;;;;;;6113382;29;20036;-80
2021/03/05 01:17:42;;;;;;;18.60;6.68;;;14.40;48.40;;;;;;6113262;29;20062;-80
2021/03/05 01:20:43;;;;;;;28.15;6.70;;;14.30;48.50;;;;;;6112119;29;20086;-80
2021/03/05 01:23:44;;;;;;;19.58;5.97;;;14.30;48.80;;;;;;6113548;29;20051;-81
2021/03/05 01:26:46;;;;;;;23.95;6.85;;;14.30;48.70;;;;;;6113158;29;20122;-78
2021/03/05 01:29:47;;;;;;;19.63;6.85;;;14.20;48.70;;;;;;6112861;29;20028;-81
2021/03/05 01:32:49;;;;;;;26.17;7.22;;;14.20;48.90;;;;;;6095410;29;20061;-79
2021/03/05 01:35:51;;;;;;;29.92;6.80;;;14.20;49.00;;;;;;6112756;29;20129;-81
2021/03/05 01:38:52;;;;;;;29.17;6.75;;;14.20;49.00;;;;;;6122818;29;20054;-80
2021/03/05 01:41:53;;;;;;;21.15;7.47;;;14.20;49.00;;;;;;6136132;29;20098;-80
2021/03/05 01:44:54;;;;;;;19.08;7.07;;;14.20;49.00;;;;;;6119573;29;20081;-80
2021/03/05 01:48:05;;;;;;;26.33;7.28;;;14.20;49.00;;;;;;6151634;29;20455;-78
2021/03/05 01:51:14;;;;;;;22.42;7.25;;;14.10;49.10;;;;;;6134538;29;20046;-80
2021/03/05 01:54:15;;;;;;;20.33;6.07;;;14.20;49.20;;;;;;6135973;29;20035;-80
2021/03/05 01:57:16;;;;;;;19.80;6.75;;;14.10;49.20;;;;;;6152556;29;20047;-79
2021/03/05 02:00:21;;;;;;;20.17;6.80;;;14.10;49.20;;;;;;6152487;29;20035;-79
2021/03/05 02:03:23;;;;;;;16.10;5.57;;;14.10;49.10;;;;;;6133548;28;20468;-80
2021/03/05 02:06:27;;;;;;;16.33;6.03;;;14.20;49.10;;;;;;6176420;28;20464;-79
2021/03/05 02:09:28;;;;;;;20.85;6.80;;;14.20;49.10;;;;;;6126113;29;20361;-79
2021/03/05 02:12:29;;;;;;;20.05;5.93;;;14.30;49.10;;;;;;6152109;29;20137;-79
2021/03/05 02:15:34;;;;;;;21.35;6.55;;;14.20;49.10;;;;;;6135757;29;20449;-80
2021/03/05 02:19:23;;;;;;;14.98;6.00;;;14.20;49.20;;;;;;6118583;28;20039;-80
2021/03/05 02:22:51;;;;;;;22.73;6.80;;;14.20;49.20;;;;;;6028630;29;20038;-79
2021/03/05 02:26:16;;;;;;;35.35;6.22;;;14.10;49.20;;;;;;6016309;29;20128;-80
2021/03/05 02:29:48;;;;;;;18.10;5.95;;;14.20;49.30;;;;;;6030135;29;20469;-80
2021/03/05 02:33:32;;;;;;;18.00;6.40;;;14.20;49.30;;;;;;6030239;29;20045;-80
2021/03/05 02:36:39;;;;;;;26.05;6.70;;;14.30;49.40;;;;;;6010269;29;20049;-80
2021/03/05 02:39:58;;;;;;;23.50;6.28;;;14.30;49.30;;;;;;6028387;29;20042;-80
2021/03/05 02:43:03;;;;;;;19.20;5.95;;;14.20;49.30;;;;;;6031720;29;20045;-80
2021/03/05 02:46:06;;;;;;;28.63;6.38;;;14.20;49.30;;;;;;6020972;29;20053;-79
2021/03/05 02:49:11;;;;;;;16.52;5.25;;;14.20;49.30;;;;;;6046718;29;20077;-79
2021/03/05 02:52:16;;;;;;;26.65;6.57;;;14.10;49.30;;;;;;6036274;29;20045;-80
2021/03/05 02:55:20;;;;;;;22.08;6.68;;;14.10;49.30;;;;;;6016260;29;20049;-79
2021/03/05 02:58:24;;;;;;;16.50;5.75;;;14.10;49.40;;;;;;6051629;29;20102;-79
2021/03/05 03:01:26;;;;;;;23.50;6.15;;;14.10;49.40;;;;;;6111757;29;20062;-79
2021/03/05 03:04:28;;;;;;;19.80;6.68;;;14.00;49.40;;;;;;6112517;29;20051;-80
2021/03/05 03:07:30;;;;;;;25.80;6.78;;;14.00;49.40;;;;;;6111208;29;20386;-79
2021/03/05 03:10:32;;;;;;;17.33;5.43;;;14.00;49.50;;;;;;6073153;29;20036;-79
2021/03/05 03:13:35;;;;;;;21.23;6.32;;;14.00;49.50;;;;;;6103132;29;20075;-78
2021/03/05 03:16:37;;;;;;;13.45;5.80;;;14.00;49.50;;;;;;6096569;29;20115;-80
2021/03/05 03:19:42;;;;;;;21.00;6.05;;;14.00;49.50;;;;;;6092376;29;20052;-80
2021/03/05 03:22:43;;;;;;;16.48;5.82;;;14.00;49.50;;;;;;6093266;29;20024;-78
2021/03/05 03:25:44;;;;;;;18.17;5.95;;;14.00;49.40;;;;;;6106184;29;20064;-78
2021/03/05 03:28:45;;;;;;;17.08;6.28;;;14.00;49.40;;;;;;6076638;29;20354;-81
2021/03/05 03:31:46;;;;;;;23.67;5.55;;;14.00;49.30;;;;;;6106438;29;20056;-78
2021/03/05 03:34:48;;;;;;;14.27;5.10;;;14.00;49.30;;;;;;6091246;29;20047;-79
2021/03/05 03:37:51;;;;;;;19.35;5.68;;;14.00;49.30;;;;;;6107520;29;20047;-78
2021/03/05 03:40:52;;;;;;;9.50;5.13;;;14.00;49.30;;;;;;6118083;29;20036;-78
2021/03/05 03:43:53;;;;;;;30.67;5.97;;;14.00;49.30;;;;;;6093499;29;20055;-81
2021/03/05 03:46:56;;;;;;;18.80;5.18;;;14.00;49.40;;;;;;6109645;29;20031;-81
2021/03/05 03:49:59;;;;;;;26.58;5.50;;;14.00;49.40;;;;;;6109883;29;20384;-79
2021/03/05 03:53:10;;;;;;;19.23;5.88;;;13.90;49.40;;;;;;6109035;29;20043;-81
2021/03/05 03:56:12;;;;;;;17.38;5.93;;;13.90;49.40;;;;;;6117522;29;20059;-80
2021/03/05 03:59:15;;;;;;;17.17;6.10;;;13.90;49.50;;;;;;6134258;29;20035;-78
2021/03/05 04:02:18;;;;;;;15.80;5.50;;;13.80;49.50;;;;;;6132123;29;20065;-78
2021/03/05 04:08:56;;;;;;;22.63;6.13;;;13.80;49.70;;;;;;6132695;29;20086;-79
2021/03/05 04:11:57;;;;;;;18.42;5.68;;;13.80;49.80;;;;;;6109962;29;20043;-79
2021/03/05 04:14:59;;;;;;;18.85;5.93;;;13.80;49.80;;;;;;6113480;29;20186;-79
2021/03/05 04:18:00;;;;;;;15.27;6.00;;;13.80;49.70;;;;;;6124723;29;20051;-79
2021/03/05 04:21:13;;;;;;;30.73;7.07;;;13.80;49.80;;;;;;6124384;29;20051;-78
2021/03/05 04:24:15;;;;;;;17.70;5.65;;;13.90;49.80;;;;;;6125791;29;20031;-80
2021/03/05 04:27:17;;;;;;;16.60;5.80;;;13.90;49.70;;;;;;6114252;29;20059;-81
2021/03/05 04:30:18;;;;;;;17.83;6.03;;;13.90;49.70;;;;;;6131387;29;20039;-81
2021/03/05 04:33:19;;;;;;;20.63;5.60;;;13.80;49.80;;;;;;6128765;29;20031;-81
2021/03/05 04:36:20;;;;;;;20.15;5.63;;;13.80;49.80;;;;;;6129906;29;20083;-80
2021/03/05 04:39:21;;;;;;;19.58;5.78;;;13.80;49.80;;;;;;6129458;29;20035;-79
2021/03/05 04:42:23;;;;;;;19.08;6.03;;;13.80;49.80;;;;;;6109720;29;20468;-79
2021/03/05 04:45:25;;;;;;;21.13;6.47;;;13.80;49.90;;;;;;6128289;29;20028;-79
2021/03/05 04:48:26;;;;;;;17.58;6.28;;;13.80;49.90;;;;;;6133911;29;20453;-78
2021/03/05 04:51:27;;;;;;;18.13;6.57;;;13.80;50.00;;;;;;6142367;29;20050;-79
2021/03/05 04:54:28;;;;;;;21.20;6.00;;;13.70;50.10;;;;;;6118745;29;20039;-79
2021/03/05 04:57:29;;;;;;;15.95;5.82;;;13.70;50.10;;;;;;6119280;29;20468;-78
2021/03/05 05:00:30;;;;;;;21.48;5.95;;;13.70;50.20;;;;;;6130200;29;20464;-79
2021/03/05 05:03:31;;;;;;;18.27;6.32;;;13.70;50.30;;;;;;6124176;29;20043;-79
2021/03/05 05:06:32;;;;;;;16.92;6.20;;;13.60;50.30;;;;;;6128290;29;20040;-80
2021/03/05 05:09:33;;;;;;;16.65;6.32;;;13.60;50.40;;;;;;6112478;29;20469;-81
2021/03/05 05:12:34;;;;;;;18.65;6.55;;;13.60;50.50;;;;;;6134809;29;20073;-80
2021/03/05 05:15:35;;;;;;;19.23;6.40;;;13.60;50.60;;;;;;6134670;29;20110;-80
2021/03/05 05:18:36;;;;;;;20.38;6.53;;;13.60;50.70;;;;;;6150614;29;20050;-81
2021/03/05 05:21:38;;;;;;;23.05;5.80;;;13.60;50.70;;;;;;6110793;29;20032;-80
2021/03/05 05:24:39;;;;;;;20.23;6.88;;;13.50;50.70;;;;;;6125998;29;20411;-80
2021/03/05 05:27:40;;;;;;;23.30;5.97;;;13.50;50.60;;;;;;6127602;29;20036;-81
2021/03/05 05:30:40;;;;;;;15.75;5.88;;;13.50;50.70;;;;;;6145212;29;20047;-80
2021/03/05 05:33:41;;;;;;;18.10;5.70;;;13.50;50.80;;;;;;6118341;29;20464;-80
2021/03/05 05:36:42;;;;;;;18.45;6.03;;;13.50;50.80;;;;;;6150113;29;20032;-80
2021/03/05 05:39:44;;;;;;;22.02;5.53;;;13.50;50.90;;;;;;6117036;29;20039;-81
2021/03/05 05:42:48;;;;;;;26.27;6.45;;;13.50;51.00;;;;;;6126019;29;20035;-80
2021/03/05 05:45:49;;;;;;;19.05;5.55;;;13.40;50.80;;;;;;6142685;29;20062;-80
2021/03/05 05:48:50;;;;;;;12.75;5.75;;;13.40;50.90;;;;;;6133959;29;20039;-80
2021/03/05 05:51:56;;;;;;;13.50;6.18;;;13.40;50.90;;;;;;6133680;29;20047;-80
2021/03/05 05:54:59;;;;;;;15.80;5.22;;;13.40;50.90;;;;;;6126052;29;20043;-80
2021/03/05 05:58:01;;;;;;;15.43;6.03;;;13.40;50.90;;;;;;6127274;29;20450;-80
2021/03/05 06:01:02;;;;;;;18.05;5.50;;;13.40;50.90;;;;;;6129756;29;20048;-80
2021/03/05 06:04:05;;;;;;;18.08;6.00;;;13.40;50.90;;;;;;6119829;28;20050;-79
2021/03/05 06:07:06;;;;;;;39.65;5.95;;;13.40;51.50;;;;;;6134761;29;20042;-79
2021/03/05 06:10:08;;;;;;;18.50;6.72;;;13.40;50.90;;;;;;6127409;29;20035;-80
2021/03/05 06:13:09;;;;;;;17.98;6.90;;;13.30;50.90;;;;;;6130171;29;20047;-80
2021/03/05 06:16:18;;;;;;;21.08;7.55;;;13.20;50.90;;;;;;6151801;29;20117;-80
2021/03/05 06:19:21;;;;;;;12.85;5.97;;;13.20;51.00;;;;;;6138865;29;20153;-81
2021/03/05 06:22:23;;;;;;;19.27;6.78;;;13.20;51.30;;;;;;6127088;29;20047;-81
2021/03/05 06:25:35;;;;;;;29.02;7.97;;;13.20;51.40;;;;;;6126373;29;20035;-81
2021/03/05 06:28:36;;;;;;;21.80;5.80;;;13.20;51.40;;;;;;6140371;29;20469;-80
2021/03/05 06:31:37;;;;;;;23.40;6.90;;;13.20;51.50;;;;;;6144236;29;20040;-80
2021/03/05 06:34:54;;;;;;;19.20;6.75;;;13.20;51.50;;;;;;6122749;29;20046;-80
2021/03/05 06:37:55;;;;;;;18.92;6.28;;;13.20;51.60;;;;;;6090592;29;20040;-80
2021/03/05 06:41:39;;;;;;;18.90;6.80;;;13.20;52.10;;;;;;6121749;29;20122;-80
2021/03/05 06:44:42;;;;;;;20.35;6.70;;;13.30;51.60;;;;;;6120492;29;20031;-80
2021/03/05 06:48:06;;;;;;;20.95;7.20;;;13.30;51.50;;;;;;6113874;29;20040;-80
2021/03/05 06:51:08;;;;;;;24.63;7.63;;;13.30;51.50;;;;;;6115737;29;20043;-78
2021/03/05 06:54:12;;;;;;;19.77;7.40;;;13.40;51.60;;;;;;6107291;29;20102;-78
2021/03/05 06:57:25;;;;;;;22.50;7.22;;;13.40;51.70;;;;;;6101054;29;20043;-79
2021/03/05 07:00:27;;;;;;;27.67;7.53;;;13.50;51.70;;;;;;6135121;29;20377;-79
2021/03/05 07:03:27;;;;;;;28.77;7.40;;;13.50;51.60;;;;;;6094796;29;20457;-77
2021/03/05 07:06:28;;;;;;;25.35;8.35;;;13.50;51.50;;;;;;6102836;29;20477;-78
2021/03/05 07:09:36;;;;;;;20.02;7.15;;;13.50;51.40;;;;;;6090026;29;20062;-77
2021/03/05 07:12:37;;;;;;;19.63;8.13;;;13.50;51.40;;;;;;6116246;29;20055;-77
2021/03/05 07:15:53;;;;;;;31.75;6.45;;;13.60;51.40;;;;;;6099694;29;20032;-77
2021/03/05 07:18:54;;;;;;;21.00;8.43;;;13.60;51.30;;;;;;6095883;29;20676;-81
2021/03/05 07:21:56;;;;;;;23.42;7.63;;;13.70;51.10;;;;;;6093976;29;20094;-80
2021/03/05 07:25:01;;;;;;;23.65;7.53;;;13.80;51.10;;;;;;6085285;29;20072;-81
2021/03/05 07:28:04;;;;;;;16.80;6.97;;;13.80;51.00;;;;;;6095579;29;20043;-80
2021/03/05 07:31:06;;;;;;;20.33;8.20;;;13.80;50.80;;;;;;6090640;29;20040;-78
2021/03/05 07:34:11;;;;;;;24.27;8.13;;;13.80;50.90;;;;;;6099319;29;20043;-78
2021/03/05 07:37:13;;;;;;;22.98;7.15;;;13.80;50.90;;;;;;6100786;29;20050;-77
2021/03/05 07:40:15;;;;;;;30.00;8.52;;;13.80;50.90;;;;;;6114217;29;20042;-77
2021/03/05 07:43:17;;;;;;;19.80;7.72;;;13.80;50.80;;;;;;6078032;29;20032;-80
2021/03/05 07:46:19;;;;;;;23.17;8.23;;;13.80;50.80;;;;;;6095712;29;20031;-78
2021/03/05 07:49:29;;;;;;;28.83;8.85;;;13.90;50.90;;;;;;6098104;29;20028;-76
2021/03/05 07:52:30;;;;;;;27.17;9.40;;;13.90;51.30;;;;;;6097710;29;20047;-76
2021/03/05 07:55:39;;;;;;;22.67;9.43;;;13.90;51.60;;;;;;6097198;29;20111;-76
2021/03/05 07:58:45;;;;;;;22.83;8.75;;;14.00;51.80;;;;;;6108038;29;20039;-76
2021/03/05 08:01:55;;;;;;;21.50;9.02;;;14.10;51.90;;;;;;6118385;29;20507;-76
2021/03/05 08:05:05;;;;;;;30.42;9.07;;;14.10;51.90;;;;;;6106693;29;20449;-76
2021/03/05 08:08:17;;;;;;;30.70;8.80;;;14.20;51.80;;;;;;6121571;29;20050;-76
2021/03/05 08:11:26;;;;;;;30.85;9.05;;;14.30;51.80;;;;;;6123032;29;20045;-77
2021/03/05 08:14:28;;;;;;;24.05;9.13;;;14.30;51.70;;;;;;6108930;28;20100;-77
2021/03/05 08:17:33;;;;;;;34.65;10.45;;;14.30;51.70;;;;;;6123611;29;20134;-76
2021/03/05 08:20:37;;;;;;;19.55;8.65;;;14.30;51.80;;;;;;6134798;29;20035;-75
2021/03/05 08:23:58;;;;;;;26.42;10.38;;;14.40;51.80;;;;;;6128860;29;20170;-75
2021/03/05 08:27:04;;;;;;;28.77;9.55;;;14.40;51.70;;;;;;6130598;29;20130;-77
2021/03/05 08:30:11;;;;;;;27.08;9.68;;;14.50;51.60;;;;;;6123512;29;20039;-76
2021/03/05 10:04:46;;;;;;;51.20;15.48;;;16.80;48.40;;;;;;6099284;29;20051;-76
2021/03/05 10:07:48;;;;;;;24.35;8.25;;;16.90;48.20;;;;;;6113419;29;20072;-75
2021/03/05 10:10:58;;;;;;;28.45;9.13;;;17.00;48.10;;;;;;6117098;29;20043;-75
2021/03/05 10:13:59;;;;;;;21.73;6.28;;;17.00;48.20;;;;;;6135662;29;20088;-78
2021/03/05 10:17:15;;;;;;;22.20;7.13;;;17.10;47.90;;;;;;6119429;29;20047;-77
2021/03/05 10:20:16;;;;;;;26.98;6.70;;;17.20;47.30;;;;;;6128763;29;20043;-77
2021/03/05 10:23:17;;;;;;;20.35;5.53;;;17.30;46.50;;;;;;6073301;29;20036;-77
2021/03/05 10:26:27;;;;;;;22.40;6.10;;;17.40;46.00;;;;;;6087486;28;20061;-77
2021/03/05 10:29:47;;;;;;;21.92;6.28;;;17.50;45.70;;;;;;6086493;29;20035;-78
2021/03/05 10:32:48;;;;;;;20.55;6.70;;;17.50;45.40;;;;;;6107251;29;20059;-76
2021/03/05 10:35:49;;;;;;;21.95;6.57;;;17.50;44.90;;;;;;6110320;29;20045;-77
2021/03/05 10:38:50;;;;;;;25.60;8.85;;;17.60;45.00;;;;;;6116771;29;20038;-77
2021/03/05 10:41:53;;;;;;;27.98;7.90;;;17.70;45.00;;;;;;6102331;29;20059;-77
2021/03/05 10:44:55;;;;;;;25.83;7.90;;;17.90;45.10;;;;;;6114323;29;20039;-77
2021/03/05 10:47:59;;;;;;;23.80;8.98;;;18.10;44.80;;;;;;6113898;29;20481;-76
2021/03/05 10:51:00;;;;;;;25.60;10.13;;;18.20;44.60;;;;;;6124382;29;20056;-76
2021/03/05 10:54:02;;;;;;;30.63;10.18;;;18.40;44.60;;;;;;6146041;29;20043;-78
2021/03/05 10:57:04;;;;;;;24.17;9.52;;;18.80;44.10;;;;;;6110763;29;20047;-76
2021/03/05 11:00:06;;;;;;;28.40;9.45;;;19.10;43.60;;;;;;6108375;29;20039;-79
2021/03/05 11:03:07;;;;;;;17.63;7.15;;;19.40;42.90;;;;;;6118222;29;20797;-77
2021/03/05 11:06:08;;;;;;;10.75;4.95;;;19.70;42.40;;;;;;6128046;29;20036;-77
2021/03/05 11:09:10;;;;;;;21.70;4.72;;;20.10;41.00;;;;;;6120001;29;20047;-78
2021/03/05 11:12:12;;;;;;;11.27;4.35;;;20.40;39.20;;;;;;6115883;29;20048;-77
2021/03/05 11:15:14;;;;;;;20.27;5.50;;;20.60;37.80;;;;;;6128711;29;20050;-77
2021/03/05 11:18:15;;;;;;;16.65;4.43;;;20.70;36.50;;;;;;6111405;29;20119;-77
2021/03/05 11:21:16;;;;;;;13.68;3.42;;;20.70;35.90;;;;;;6108587;29;20062;-77
2021/03/05 11:24:17;;;;;;;12.00;3.33;;;20.80;35.20;;;;;;6077484;29;20046;-78
2021/03/05 11:27:18;;;;;;;11.00;2.97;;;20.80;34.60;;;;;;6115447;29;20436;-76
2021/03/05 11:30:20;;;;;;;13.40;2.97;;;20.90;33.90;;;;;;6099294;29;20035;-76
2021/03/05 11:33:21;;;;;;;13.85;3.60;;;21.10;32.60;;;;;;6103542;29;20079;-77
2021/03/05 11:36:22;;;;;;;6.95;2.88;;;21.00;32.70;;;;;;6131263;29;20441;-77
2021/03/05 11:39:23;;;;;;;7.68;2.40;;;21.00;32.50;;;;;;6100450;29;20040;-76
2021/03/05 11:42:25;;;;;;;7.50;3.28;;;21.00;32.00;;;;;;6125212;29;20027;-76
2021/03/05 11:45:26;;;;;;;6.25;2.33;;;20.80;31.10;;;;;;6092229;29;20039;-76
2021/03/05 11:48:27;;;;;;;8.32;2.90;;;20.70;31.00;;;;;;6092908;29;20044;-77
2021/03/05 11:51:28;;;;;;;11.23;2.40;;;20.50;30.60;;;;;;6106507;28;20053;-76
2021/03/05 11:54:29;;;;;;;8.75;2.78;;;20.30;30.00;;;;;;6124434;28;20046;-77
2021/03/05 11:57:30;;;;;;;6.13;2.20;;;20.10;30.00;;;;;;6112916;29;20036;-76
2021/03/05 12:00:33;;;;;;;13.50;2.28;;;19.90;30.20;;;;;;6081376;29;20492;-76
2021/03/05 12:03:34;;;;;;;15.80;2.83;;;20.00;30.70;;;;;;6108022;29;20036;-78
2021/03/05 12:06:35;;;;;;;22.00;3.85;;;20.20;30.80;;;;;;6125247;29;20075;-76
2021/03/05 12:09:35;;;;;;;13.73;3.40;;;21.00;30.00;;;;;;6109134;29;20484;-77
2021/03/05 12:12:36;;;;;;;13.30;3.50;;;21.80;29.30;;;;;;6109139;29;20040;-76
2021/03/05 12:15:40;;;;;;;13.63;3.47;;;22.50;28.50;;;;;;6118843;29;20047;-78
2021/03/05 12:18:40;;;;;;;9.18;2.67;;;22.80;28.30;;;;;;6096383;29;20052;-78
2021/03/05 12:21:42;;;;;;;8.10;2.83;;;23.00;27.80;;;;;;6098537;29;20177;-77
2021/03/05 12:24:42;;;;;;;11.07;3.60;;;23.30;27.50;;;;;;6122288;29;20051;-78
2021/03/05 12:27:43;;;;;;;5.85;3.28;;;23.60;26.70;;;;;;6113083;29;20086;-77
2021/03/05 12:30:44;;;;;;;11.52;2.90;;;23.40;26.70;;;;;;6106650;29;20050;-76
2021/03/05 12:33:45;;;;;;;6.47;2.85;;;23.10;27.10;;;;;;6107177;29;20521;-76
2021/03/05 12:36:46;;;;;;;8.65;2.88;;;22.70;27.20;;;;;;6088975;29;20063;-77
2021/03/05 12:39:48;;;;;;;11.40;3.08;;;22.30;27.40;;;;;;6085517;29;20733;-76
2021/03/05 12:42:55;;;;;;;14.05;3.60;;;22.30;27.60;;;;;;6123590;29;20091;-77
2021/03/05 12:45:56;;;;;;;6.82;2.88;;;22.80;27.20;;;;;;6107476;29;20418;-79
2021/03/05 12:48:57;;;;;;;6.80;2.97;;;23.40;26.70;;;;;;6089963;29;20043;-78
2021/03/05 12:51:58;;;;;;;10.23;2.95;;;24.00;25.90;;;;;;6123764;28;20063;-76
2021/03/05 12:54:59;;;;;;;10.80;3.55;;;24.50;25.10;;;;;;6148287;28;20047;-78
2021/03/05 12:58:00;;;;;;;6.10;3.17;;;24.80;24.70;;;;;;6122118;29;20429;-78
2021/03/05 13:01:01;;;;;;;11.95;3.60;;;24.30;25.10;;;;;;6117081;29;20032;-76
2021/03/05 13:04:04;;;;;;;9.70;3.90;;;23.90;25.90;;;;;;6119360;29;20074;-77
2021/03/05 13:07:05;;;;;;;11.68;4.10;;;23.50;26.50;;;;;;6152643;28;20090;-77
2021/03/05 13:10:08;;;;;;;15.23;4.53;;;23.00;27.30;;;;;;6099544;29;20042;-77
2021/03/05 13:13:10;;;;;;;15.15;3.50;;;22.30;28.30;;;;;;6129636;29;20047;-76
2021/03/05 13:16:12;;;;;;;8.63;2.90;;;21.70;29.00;;;;;;6120151;29;20050;-76
2021/03/05 13:19:13;;;;;;;13.88;2.92;;;21.10;29.00;;;;;;6113167;29;20044;-76
2021/03/05 13:22:14;;;;;;;4.30;2.60;;;20.70;29.50;;;;;;6112723;29;20045;-77
2021/03/05 13:25:19;;;;;;;8.00;3.13;;;20.40;29.80;;;;;;6128669;29;20038;-76
2021/03/05 13:28:21;;;;;;;6.22;3.00;;;20.30;30.50;;;;;;6112924;29;20396;-77
2021/03/05 13:31:22;;;;;;;8.13;3.53;;;20.20;31.10;;;;;;6110062;29;20047;-77
2021/03/05 13:34:23;;;;;;;10.40;3.67;;;20.10;31.60;;;;;;6111666;29;20463;-77
2021/03/05 13:37:24;;;;;;;10.98;4.05;;;20.00;32.30;;;;;;6093384;29;20067;-77
2021/03/05 13:40:26;;;;;;;12.15;4.40;;;20.10;32.90;;;;;;6128921;29;20044;-78
2021/03/05 13:43:27;;;;;;;8.43;3.78;;;20.10;33.10;;;;;;6109216;29;20028;-79
2021/03/05 13:46:28;;;;;;;10.95;3.83;;;20.00;33.20;;;;;;6111911;29;20051;-77
2021/03/05 13:49:29;;;;;;;10.05;4.60;;;19.90;33.40;;;;;;6111518;29;20048;-77
2021/03/05 13:52:30;;;;;;;11.30;3.35;;;19.90;33.80;;;;;;6128475;29;20139;-76
2021/03/05 13:55:31;;;;;;;10.23;3.58;;;19.90;33.90;;;;;;6093492;29;20050;-78
2021/03/05 13:58:32;;;;;;;15.45;3.75;;;19.80;33.40;;;;;;6110250;29;20032;-78
2021/03/05 14:01:33;;;;;;;9.88;3.33;;;19.80;33.00;;;;;;6110441;29;20619;-79
2021/03/05 14:04:37;;;;;;;16.38;3.65;;;19.80;32.70;;;;;;6103218;29;20386;-76
2021/03/05 14:07:38;;;;;;;11.00;3.22;;;19.80;32.70;;;;;;6097505;29;20066;-76
2021/03/05 14:10:39;;;;;;;14.60;3.65;;;19.70;32.80;;;;;;6102552;29;20401;-76
2021/03/05 14:13:40;;;;;;;9.15;3.78;;;19.70;33.20;;;;;;6102279;29;20060;-76
2021/03/05 14:16:43;;;;;;;8.48;3.53;;;19.60;33.60;;;;;;6102809;29;20032;-75
2021/03/05 14:19:44;;;;;;;10.27;3.35;;;19.50;33.80;;;;;;6104251;29;20043;-76
2021/03/05 14:22:45;;;;;;;10.15;3.25;;;19.40;34.00;;;;;;6103564;29;20036;-76
2021/03/05 14:25:46;;;;;;;7.88;3.08;;;19.30;34.20;;;;;;6103647;29;20028;-77
2021/03/05 14:28:48;;;;;;;7.30;2.63;;;19.30;34.50;;;;;;6103159;29;20429;-75
2021/03/05 14:31:50;;;;;;;6.63;2.90;;;19.30;34.70;;;;;;6104584;29;20036;-77
2021/03/05 14:34:51;;;;;;;6.30;3.03;;;19.20;34.90;;;;;;6098123;29;20044;-77
2021/03/05 14:37:52;;;;;;;9.57;4.20;;;19.20;35.10;;;;;;6101872;29;20067;-77
2021/03/05 14:40:53;;;;;;;9.85;4.15;;;19.20;35.50;;;;;;6079967;29;20048;-76
2021/03/05 14:43:55;;;;;;;9.05;3.88;;;19.20;35.80;;;;;;6102096;29;20044;-77
2021/03/05 14:46:57;;;;;;;14.95;5.03;;;19.20;36.20;;;;;;6096860;29;20127;-77
2021/03/05 14:49:58;;;;;;;16.67;4.75;;;19.20;36.50;;;;;;6102651;29;20482;-76
2021/03/05 14:52:58;;;;;;;14.20;5.22;;;19.20;36.60;;;;;;6102141;29;20054;-75
2021/03/05 14:56:00;;;;;;;11.90;5.10;;;19.30;36.80;;;;;;6111530;29;20365;-77
2021/03/05 14:59:01;;;;;;;14.65;4.63;;;19.30;36.80;;;;;;6114326;29;20044;-76
2021/03/05 15:02:02;;;;;;;12.98;6.53;;;19.30;37.00;;;;;;6109635;29;20111;-76
2021/03/05 15:05:06;;;;;;;15.40;5.20;;;19.20;37.20;;;;;;6111203;29;20046;-76
2021/03/05 15:08:07;;;;;;;16.55;5.53;;;19.20;37.40;;;;;;6110549;29;20385;-77
2021/03/05 15:11:08;;;;;;;10.52;5.60;;;19.10;37.70;;;;;;6098533;29;20044;-77
2021/03/05 15:14:09;;;;;;;20.90;6.63;;;19.10;37.90;;;;;;6100847;29;20061;-77
2021/03/05 15:17:10;;;;;;;19.95;6.43;;;18.90;38.30;;;;;;6114035;29;20445;-76
2021/03/05 15:20:11;;;;;;;13.25;7.32;;;18.80;38.80;;;;;;6121768;29;20031;-76
2021/03/05 15:23:12;;;;;;;14.73;6.88;;;18.70;39.10;;;;;;6110334;29;20114;-75
2021/03/05 15:26:13;;;;;;;17.20;7.28;;;18.50;39.40;;;;;;6112604;29;20079;-76
2021/03/05 15:29:15;;;;;;;16.45;6.93;;;18.30;39.70;;;;;;6094196;29;20032;-75
2021/03/05 15:32:16;;;;;;;17.20;7.47;;;18.30;40.00;;;;;;6129454;29;20420;-76
2021/03/05 15:35:17;;;;;;;15.05;6.88;;;18.20;40.20;;;;;;6112318;29;20071;-76
2021/03/05 15:38:19;;;;;;;22.17;7.95;;;18.20;40.40;;;;;;6115926;29;20194;-75
2021/03/05 15:41:20;;;;;;;17.98;6.72;;;18.20;40.50;;;;;;6122381;29;20528;-76
2021/03/05 15:44:24;;;;;;;22.25;9.25;;;18.20;40.70;;;;;;6109975;29;20046;-76
2021/03/05 15:47:25;;;;;;;17.70;7.47;;;18.10;40.80;;;;;;6087939;29;20036;-76
2021/03/05 15:50:26;;;;;;;16.60;7.80;;;18.10;41.00;;;;;;6108281;29;20119;-77
2021/03/05 15:53:27;;;;;;;17.08;8.52;;;18.00;41.20;;;;;;6114865;29;20047;-77
2021/03/05 15:56:28;;;;;;;18.85;8.70;;;18.00;41.50;;;;;;6126377;29;20036;-77
2021/03/05 15:59:29;;;;;;;19.02;7.75;;;17.90;41.80;;;;;;6105484;29;20054;-78
2021/03/05 16:02:30;;;;;;;21.92;8.77;;;17.80;42.10;;;;;;6107271;29;20062;-76
2021/03/05 16:05:32;;;;;;;23.48;9.20;;;17.70;42.30;;;;;;6133351;29;20071;-75
2021/03/05 16:08:33;;;;;;;19.33;9.13;;;17.50;42.80;;;;;;6126936;29;20098;-76
2021/03/05 16:11:34;;;;;;;19.23;9.75;;;17.40;43.20;;;;;;6104242;29;20445;-76
2021/03/05 16:14:35;;;;;;;22.80;9.77;;;17.30;43.70;;;;;;6134111;28;20047;-79
2021/03/05 16:17:36;;;;;;;23.00;10.23;;;17.20;44.00;;;;;;6117209;29;20035;-79
2021/03/05 16:20:37;;;;;;;21.75;9.55;;;17.10;44.20;;;;;;6116518;29;20374;-80
2021/03/05 16:23:38;;;;;;;20.10;9.25;;;17.00;44.60;;;;;;6111170;29;20449;-79
2021/03/05 16:26:39;;;;;;;24.10;9.20;;;16.90;45.30;;;;;;6085700;29;20087;-79
2021/03/05 16:29:40;;;;;;;27.48;10.07;;;16.70;45.70;;;;;;6134027;28;20036;-80
2021/03/05 16:32:43;;;;;;;21.08;9.65;;;16.60;46.40;;;;;;6133849;28;20531;-79
2021/03/05 16:35:44;;;;;;;22.70;9.50;;;16.50;47.10;;;;;;6133891;28;20036;-78
2021/03/05 16:38:45;;;;;;;21.08;9.57;;;16.40;47.90;;;;;;6118160;29;20031;-79
2021/03/05 16:41:47;;;;;;;17.77;8.10;;;16.20;48.60;;;;;;6100727;29;20141;-78
2021/03/05 16:44:47;;;;;;;18.42;8.15;;;16.10;48.80;;;;;;6118001;29;20040;-78
2021/03/05 16:47:48;;;;;;;19.50;8.35;;;15.90;48.90;;;;;;6138706;29;20400;-77
2021/03/05 16:50:50;;;;;;;19.75;8.77;;;15.90;48.90;;;;;;6137310;29;20035;-77
2021/03/05 16:53:50;;;;;;;23.05;8.68;;;15.80;48.90;;;;;;6129722;29;20032;-77
2021/03/05 16:56:52;;;;;;;24.75;9.82;;;15.70;48.90;;;;;;6126379;29;20035;-77
2021/03/05 16:59:53;;;;;;;24.50;10.38;;;15.70;48.80;;;;;;6114537;29;20103;-77
2021/03/05 17:02:54;;;;;;;17.05;7.40;;;15.60;48.60;;;;;;6114457;29;20048;-79
2021/03/05 17:05:55;;;;;;;20.73;9.05;;;15.60;48.90;;;;;;6129859;29;20051;-78
2021/03/05 17:08:56;;;;;;;20.00;8.70;;;15.50;49.00;;;;;;6105089;29;20032;-78
2021/03/05 17:11:57;;;;;;;21.63;8.52;;;15.40;49.10;;;;;;6131156;29;20055;-78
2021/03/05 17:14:59;;;;;;;21.02;8.63;;;15.40;49.30;;;;;;6114373;29;20078;-79
2021/03/05 17:18:00;;;;;;;15.80;7.47;;;15.30;49.20;;;;;;6114362;29;20347;-78